Time;durP1;ratioP1;P1;durP2;ratioP2;P2;SDS_P1;SDS_P2;PMS_P1;PMS_P2;Temp;Humidity;BMP_temperature;BMP_pressure;BME280_temperature;BME280_humidity;BME280_pressure;Samples;Min_cycle;Max_cycle;Signal;HPM_P1;HPM_P2
2022/09/08 00:01:43;;;;;;;;;;;23.90;46.80;;;;;;8330154;28;19971;-44
2022/09/08 00:05:48;;;;;;;;;;;23.80;46.70;;;;;;8334529;28;19970;-45
2022/09/08 00:09:48;;;;;;;;;;;23.80;46.70;;;;;;8355258;28;19914;-45
2022/09/08 00:13:49;;;;;;;;;;;23.80;46.80;;;;;;8332158;28;19921;-45
2022/09/08 00:17:49;;;;;;;;;;;23.80;46.80;;;;;;8335897;28;20019;-45
2022/09/08 00:21:50;;;;;;;;;;;23.80;46.80;;;;;;8336207;28;19917;-45
2022/09/08 00:25:51;;;;;;;;;;;23.80;46.80;;;;;;8336123;28;19912;-45
2022/09/08 00:29:51;;;;;;;;;;;23.80;46.80;;;;;;8335619;28;19924;-45
2022/09/08 00:33:52;;;;;;;;;;;23.80;46.80;;;;;;8336287;28;20374;-45
2022/09/08 00:37:53;;;;;;;;;;;23.80;46.90;;;;;;8335596;28;20287;-45
2022/09/08 00:41:54;;;;;;;;;;;23.80;46.80;;;;;;8335229;28;20012;-47
2022/09/08 00:45:55;;;;;;;;;;;23.80;46.90;;;;;;8335578;28;20004;-45
2022/09/08 00:50:00;;;;;;;;;;;23.80;46.90;;;;;;8335449;28;19924;-46
2022/09/08 00:54:01;;;;;;;;;;;23.80;46.90;;;;;;8335159;28;19917;-44
2022/09/08 00:58:02;;;;;;;;;;;23.80;46.90;;;;;;8335086;28;19933;-45
2022/09/08 01:02:21;;;;;;;;;;;23.80;47.00;;;;;;8334931;28;19921;-45
2022/09/08 01:15:40;;;;;;;;;;;23.80;47.00;;;;;;8233436;28;19977;-45
2022/09/08 01:19:40;;;;;;;;;;;23.80;47.10;;;;;;8268338;28;19929;-45
2022/09/08 01:23:43;;;;;;;;;;;23.80;47.10;;;;;;8334156;28;19987;-45
2022/09/08 01:27:46;;;;;;;;;;;23.80;47.10;;;;;;8333569;28;19917;-44
2022/09/08 01:31:49;;;;;;;;;;;23.70;47.10;;;;;;8334081;28;20000;-45
2022/09/08 01:35:49;;;;;;;;;;;23.70;47.10;;;;;;8333577;28;20110;-45
2022/09/08 01:39:50;;;;;;;;;;;23.70;47.10;;;;;;8333776;28;19921;-45
2022/09/08 01:43:50;;;;;;;;;;;23.70;47.10;;;;;;8333874;28;19971;-44
2022/09/08 01:47:51;;;;;;;;;;;23.70;47.20;;;;;;8333207;28;19927;-45
2022/09/08 01:51:51;;;;;;;;;;;23.70;47.20;;;;;;8333704;28;19924;-44
2022/09/08 01:55:51;;;;;;;;;;;23.70;47.20;;;;;;8333293;28;20381;-45
2022/09/08 01:59:52;;;;;;;;;;;23.70;47.30;;;;;;8332847;28;19922;-45
2022/09/08 02:03:52;;;;;;;;;;;23.70;47.30;;;;;;8333398;28;19940;-45
2022/09/08 02:07:53;;;;;;;;;;;23.70;47.30;;;;;;8332851;28;19917;-44
2022/09/08 02:11:53;;;;;;;;;;;23.70;47.30;;;;;;8332458;28;20283;-45
2022/09/08 02:15:58;;;;;;;;;;;23.70;47.40;;;;;;8332714;28;19999;-44
2022/09/08 02:19:58;;;;;;;;;;;23.70;47.40;;;;;;8332598;28;19924;-43
2022/09/08 02:23:59;;;;;;;;;;;23.70;47.40;;;;;;8332270;28;20432;-44
2022/09/08 02:28:00;;;;;;;;;;;23.70;47.50;;;;;;8332554;28;19928;-45
2022/09/08 02:32:01;;;;;;;;;;;23.70;47.50;;;;;;8332283;28;19949;-45
2022/09/08 02:36:01;;;;;;;;;;;23.70;47.50;;;;;;8331203;28;20003;-44
2022/09/08 02:40:03;;;;;;;;;;;23.70;47.50;;;;;;8331344;28;19917;-45
2022/09/08 02:44:03;;;;;;;;;;;23.70;47.60;;;;;;8332328;28;19924;-45
2022/09/08 02:48:04;;;;;;;;;;;23.70;47.50;;;;;;8331282;28;19917;-45
2022/09/08 02:52:04;;;;;;;;;;;23.70;47.60;;;;;;8331800;28;19917;-44
2022/09/08 02:56:06;;;;;;;;;;;23.70;47.60;;;;;;8330497;28;19921;-45
2022/09/08 03:00:08;;;;;;;;;;;23.70;47.60;;;;;;8330907;28;19971;-45
2022/09/08 03:04:09;;;;;;;;;;;23.70;47.60;;;;;;8331693;28;19992;-45
2022/09/08 03:08:10;;;;;;;;;;;23.60;47.60;;;;;;8331254;28;20569;-45
2022/09/08 03:12:12;;;;;;;;;;;23.70;47.70;;;;;;8330581;28;19917;-45
2022/09/08 03:16:12;;;;;;;;;;;23.70;47.70;;;;;;8330919;28;19917;-45
2022/09/08 03:20:13;;;;;;;;;;;23.60;47.60;;;;;;8330409;28;19948;-44
2022/09/08 03:24:13;;;;;;;;;;;23.60;47.60;;;;;;8331307;28;20393;-45
2022/09/08 03:28:16;;;;;;;;;;;23.60;47.70;;;;;;8330778;28;19917;-45
2022/09/08 03:32:17;;;;;;;;;;;23.60;47.70;;;;;;8330176;28;19943;-44
2022/09/08 03:36:17;;;;;;;;;;;23.60;47.70;;;;;;8330470;28;19925;-46
2022/09/08 03:40:18;;;;;;;;;;;23.60;47.70;;;;;;8330907;28;19918;-47
2022/09/08 03:44:19;;;;;;;;;;;23.60;48.20;;;;;;8330175;28;19996;-43
2022/09/08 03:48:19;;;;;;;;;;;23.60;47.80;;;;;;8330415;28;19975;-46
2022/09/08 03:52:20;;;;;;;;;;;23.60;47.80;;;;;;8330433;28;19975;-45
2022/09/08 03:56:21;;;;;;;;;;;23.60;47.80;;;;;;8329660;28;20416;-45
2022/09/08 04:00:21;;;;;;;;;;;23.60;47.80;;;;;;8330278;28;20355;-45
2022/09/08 04:04:23;;;;;;;;;;;23.60;47.90;;;;;;8330136;28;19917;-46
2022/09/08 04:08:23;;;;;;;;;;;23.60;47.90;;;;;;8329465;28;19940;-45
2022/09/08 04:12:24;;;;;;;;;;;23.60;48.00;;;;;;8323701;28;19917;-44
2022/09/08 04:16:25;;;;;;;;;;;23.60;48.00;;;;;;8330084;28;19929;-46
2022/09/08 04:20:25;;;;;;;;;;;23.60;48.00;;;;;;8329440;28;20362;-46
2022/09/08 04:24:26;;;;;;;;;;;23.60;48.00;;;;;;8329776;28;19917;-45
2022/09/08 04:28:26;;;;;;;;;;;23.60;48.00;;;;;;8329663;28;19924;-44
2022/09/08 04:32:27;;;;;;;;;;;23.60;48.00;;;;;;8329248;28;19925;-45
2022/09/08 04:36:27;;;;;;;;;;;23.50;48.00;;;;;;8329567;28;19925;-46
2022/09/08 04:40:28;;;;;;;;;;;23.60;48.10;;;;;;8329958;28;19921;-45
2022/09/08 04:44:28;;;;;;;;;;;23.60;48.10;;;;;;8329061;28;19917;-45
2022/09/08 04:48:32;;;;;;;;;;;23.50;48.10;;;;;;8329277;28;19921;-47
2022/09/08 04:52:32;;;;;;;;;;;23.60;48.10;;;;;;8329345;28;19948;-46
2022/09/08 04:56:33;;;;;;;;;;;23.60;48.20;;;;;;8328807;28;20266;-47
2022/09/08 05:00:33;;;;;;;;;;;23.50;48.10;;;;;;8330768;28;20016;-45
2022/09/08 05:04:34;;;;;;;;;;;23.50;48.20;;;;;;8335044;28;19918;-45
2022/09/08 05:08:35;;;;;;;;;;;23.50;48.10;;;;;;8334414;28;19917;-45
2022/09/08 05:12:35;;;;;;;;;;;23.50;48.10;;;;;;8334773;28;19917;-46
2022/09/08 05:16:36;;;;;;;;;;;23.50;48.10;;;;;;8334634;28;20023;-45
2022/09/08 05:20:36;;;;;;;;;;;23.50;48.10;;;;;;8334400;28;19913;-45
2022/09/08 05:24:36;;;;;;;;;;;23.50;48.20;;;;;;8334637;28;19923;-44
2022/09/08 05:28:38;;;;;;;;;;;23.50;48.10;;;;;;8334245;28;19928;-44
2022/09/08 05:32:38;;;;;;;;;;;23.50;48.10;;;;;;8333822;28;19971;-45
2022/09/08 05:36:39;;;;;;;;;;;23.50;48.10;;;;;;8333995;28;19972;-44
2022/09/08 05:40:39;;;;;;;;;;;23.50;48.10;;;;;;8334094;28;19918;-45
2022/09/08 05:44:39;;;;;;;;;;;23.50;48.10;;;;;;8333280;28;20374;-46
2022/09/08 05:48:40;;;;;;;;;;;23.50;48.10;;;;;;8333953;28;19925;-45
2022/09/08 05:52:40;;;;;;;;;;;23.50;48.10;;;;;;8353930;28;19917;-45
2022/09/08 05:56:41;;;;;;;;;;;23.50;48.00;;;;;;8332924;28;19972;-44
2022/09/08 06:00:41;;;;;;;;;;;23.50;48.00;;;;;;8333346;28;19936;-45
2022/09/08 06:04:42;;;;;;;;;;;23.50;48.10;;;;;;8333007;28;19924;-44
2022/09/08 06:08:43;;;;;;;;;;;23.50;48.00;;;;;;8332436;28;19924;-45
2022/09/08 06:12:44;;;;;;;;;;;23.50;48.00;;;;;;8349010;28;20430;-45
2022/09/08 06:16:44;;;;;;;;;;;23.50;48.00;;;;;;8332718;28;19979;-45
2022/09/08 06:20:45;;;;;;;;;;;23.50;48.00;;;;;;8332483;28;19920;-44
2022/09/08 06:24:46;;;;;;;;;;;23.50;48.00;;;;;;8332631;28;19917;-44
2022/09/08 06:28:55;;;;;;;;;;;23.50;48.00;;;;;;8332384;28;20333;-45
2022/09/08 06:32:59;;;;;;;;;;;23.50;48.00;;;;;;8331818;28;19929;-45
2022/09/08 06:37:05;;;;;;;;;;;23.50;48.00;;;;;;8332418;28;19925;-45
2022/09/08 06:41:10;;;;;;;;;;;23.50;47.90;;;;;;8332438;28;20004;-45
2022/09/08 06:45:18;;;;;;;;;;;23.50;47.90;;;;;;8331412;28;19963;-44
2022/09/08 06:49:18;;;;;;;;;;;23.40;47.80;;;;;;8331799;28;19917;-44
2022/09/08 06:53:21;;;;;;;;;;;23.50;47.90;;;;;;8331001;28;19917;-45
2022/09/08 06:57:22;;;;;;;;;;;23.50;47.90;;;;;;8331504;28;19932;-45
2022/09/08 07:01:26;;;;;;;;;;;23.50;47.90;;;;;;8331679;28;19936;-45
2022/09/08 07:05:28;;;;;;;;;;;23.50;47.90;;;;;;8330870;28;19971;-45
2022/09/08 07:09:34;;;;;;;;;;;23.50;47.80;;;;;;8330433;28;20285;-46
2022/09/08 07:13:50;;;;;;;;;;;23.50;47.80;;;;;;8331136;28;19971;-45
2022/09/08 07:17:58;;;;;;;;;;;23.50;47.80;;;;;;8330350;28;19935;-46
2022/09/08 07:22:17;;;;;;;;;;;23.50;47.80;;;;;;8330920;28;19914;-45
2022/09/08 07:26:33;;;;;;;;;;;23.50;47.80;;;;;;8330446;28;19967;-44
2022/09/08 07:30:35;;;;;;;;;;;23.50;47.80;;;;;;8330557;28;20008;-46
2022/09/08 07:34:40;;;;;;;;;;;23.40;47.80;;;;;;8330655;28;19948;-45
2022/09/08 07:39:00;;;;;;;;;;;23.50;47.80;;;;;;8329872;28;20433;-45
2022/09/08 07:43:01;;;;;;;;;;;23.40;47.80;;;;;;8329788;28;19944;-45
2022/09/08 07:47:13;;;;;;;;;;;23.40;47.70;;;;;;8330251;28;20341;-45
2022/09/08 07:51:15;;;;;;;;;;;23.50;47.80;;;;;;8330267;28;20489;-45
2022/09/08 07:55:22;;;;;;;;;;;23.50;47.80;;;;;;8330152;28;19917;-46
2022/09/08 07:59:27;;;;;;;;;;;23.50;47.80;;;;;;8329582;28;19922;-45
2022/09/08 08:03:38;;;;;;;;;;;23.50;47.80;;;;;;8330088;28;19923;-46
2022/09/08 08:07:44;;;;;;;;;;;23.40;47.70;;;;;;8329909;28;19978;-46
2022/09/08 08:11:57;;;;;;;;;;;23.50;47.80;;;;;;8329828;28;19979;-45
2022/09/08 08:16:05;;;;;;;;;;;23.50;47.70;;;;;;8330454;28;19917;-44
2022/09/08 08:20:15;;;;;;;;;;;23.50;47.70;;;;;;8329975;28;19932;-45
2022/09/08 08:24:54;;;;;;;;;;;23.50;47.70;;;;;;8329847;28;19924;-43
2022/09/08 08:29:07;;;;;;;;;;;23.50;47.70;;;;;;8229003;28;19914;-44
2022/09/08 08:33:13;;;;;;;;;;;23.50;47.70;;;;;;8271158;28;20687;-45
2022/09/08 08:37:19;;;;;;;;;;;23.50;47.60;;;;;;8334005;28;19925;-45
2022/09/08 08:41:42;;;;;;;;;;;23.50;47.60;;;;;;8338124;28;19917;-45
2022/09/08 08:45:51;;;;;;;;;;;23.50;47.60;;;;;;8283811;28;20337;-44
2022/09/08 08:50:10;;;;;;;;;;;23.60;47.60;;;;;;8323632;28;20338;-45
2022/09/08 08:54:19;;;;;;;;;;;23.60;47.60;;;;;;8334875;28;20433;-44
2022/09/08 08:58:35;;;;;;;;;;;23.60;47.60;;;;;;8335248;28;20012;-45
2022/09/08 09:02:51;;;;;;;;;;;23.60;47.60;;;;;;8334800;28;19917;-44
2022/09/08 09:07:10;;;;;;;;;;;23.60;47.50;;;;;;8335628;28;19952;-45
2022/09/08 09:11:23;;;;;;;;;;;23.60;47.50;;;;;;8335182;28;19928;-44
2022/09/08 09:15:49;;;;;;;;;;;23.60;47.50;;;;;;8334813;28;19924;-44
2022/09/08 09:19:49;;;;;;;;;;;23.60;47.50;;;;;;8334598;28;20293;-45
2022/09/08 09:23:59;;;;;;;;;;;23.60;47.40;;;;;;8333988;28;20176;-45
2022/09/08 09:27:59;;;;;;;;;;;23.60;47.40;;;;;;8334628;28;20378;-44
2022/09/08 09:32:04;;;;;;;;;;;23.60;47.40;;;;;;8334543;28;19921;-44
2022/09/08 09:36:13;;;;;;;;;;;23.70;47.40;;;;;;8333760;28;19922;-46
2022/09/08 09:40:32;;;;;;;;;;;23.70;47.40;;;;;;8334099;28;19925;-44
2022/09/08 09:44:51;;;;;;;;;;;23.70;47.40;;;;;;8333486;28;19925;-44
2022/09/08 09:49:09;;;;;;;;;;;23.70;47.30;;;;;;8333325;28;19967;-44
2022/09/08 09:53:28;;;;;;;;;;;23.70;47.30;;;;;;8333619;28;19917;-45
2022/09/08 09:57:41;;;;;;;;;;;23.70;47.20;;;;;;8333261;28;19922;-43
2022/09/08 10:01:53;;;;;;;;;;;23.70;47.20;;;;;;8333521;28;19976;-43
2022/09/08 10:06:09;;;;;;;;;;;23.80;47.20;;;;;;8309747;28;19918;-45
2022/09/08 10:10:24;;;;;;;;;;;23.80;47.20;;;;;;8319378;28;20012;-43
2022/09/08 10:14:43;;;;;;;;;;;23.80;47.10;;;;;;8332494;28;19917;-43
2022/09/08 10:18:43;;;;;;;;;;;23.80;47.10;;;;;;8332815;28;20528;-44
2022/09/08 10:23:10;;;;;;;;;;;23.80;47.10;;;;;;8332930;28;19992;-44
2022/09/08 10:27:13;;;;;;;;;;;23.90;47.00;;;;;;8329330;28;20023;-45
2022/09/08 10:31:20;;;;;;;;;;;23.90;47.00;;;;;;8332448;28;19917;-44
2022/09/08 10:35:21;;;;;;;;;;;23.90;46.90;;;;;;8332886;28;19931;-43
2022/09/08 10:39:27;;;;;;;;;;;23.90;46.90;;;;;;8332347;28;20290;-44
2022/09/08 10:43:37;;;;;;;;;;;23.90;46.90;;;;;;8332205;28;19917;-44
2022/09/08 10:47:50;;;;;;;;;;;23.90;46.80;;;;;;8331768;28;20393;-44
2022/09/08 10:51:59;;;;;;;;;;;24.00;46.80;;;;;;8331901;28;19945;-45
2022/09/08 10:56:07;;;;;;;;;;;24.00;46.80;;;;;;8331793;28;19940;-44
2022/09/08 11:00:13;;;;;;;;;;;23.90;46.80;;;;;;8330229;28;19932;-43
2022/09/08 11:04:19;;;;;;;;;;;23.90;46.80;;;;;;8331517;28;20374;-44
2022/09/08 11:08:38;;;;;;;;;;;24.00;46.80;;;;;;8330741;28;19917;-44
2022/09/08 11:12:49;;;;;;;;;;;24.00;46.80;;;;;;8331682;28;19913;-44
2022/09/08 11:17:02;;;;;;;;;;;24.00;46.70;;;;;;8331068;28;19925;-44
2022/09/08 11:21:07;;;;;;;;;;;24.00;46.70;;;;;;8330536;28;19917;-44
2022/09/08 11:25:13;;;;;;;;;;;24.00;46.70;;;;;;8330807;28;20270;-45
2022/09/08 11:29:14;;;;;;;;;;;24.00;46.60;;;;;;8330382;28;19924;-42
2022/09/08 11:33:33;;;;;;;;;;;24.00;46.60;;;;;;8330854;28;19956;-43
2022/09/08 11:37:33;;;;;;;;;;;24.10;46.60;;;;;;8330558;28;19932;-44
2022/09/08 11:41:36;;;;;;;;;;;24.10;46.50;;;;;;8330214;28;19921;-42
2022/09/08 11:46:00;;;;;;;;;;;24.10;46.50;;;;;;8330286;28;19917;-41
2022/09/08 11:50:19;;;;;;;;;;;24.00;46.40;;;;;;8330477;28;20008;-45
2022/09/08 11:54:39;;;;;;;;;;;24.10;46.50;;;;;;8330063;28;19963;-42
2022/09/08 11:58:58;;;;;;;;;;;24.10;46.50;;;;;;8330164;28;19971;-42
2022/09/08 12:02:58;;;;;;;;;;;24.00;46.40;;;;;;8330030;28;20350;-42
2022/09/08 12:06:59;;;;;;;;;;;24.10;46.40;;;;;;8330167;28;19917;-42
2022/09/08 12:11:11;;;;;;;;;;;24.10;46.40;;;;;;8334128;28;20270;-42
2022/09/08 12:15:19;;;;;;;;;;;24.10;46.40;;;;;;8335331;28;19925;-42
2022/09/08 12:19:31;;;;;;;;;;;24.10;46.40;;;;;;8336616;28;19927;-42
2022/09/08 12:23:35;;;;;;;;;;;24.10;46.30;;;;;;8336194;28;19917;-44
2022/09/08 12:27:54;;;;;;;;;;;24.20;46.30;;;;;;8336541;28;20313;-42
2022/09/08 12:32:12;;;;;;;;;;;24.20;46.30;;;;;;8336268;28;20370;-42
2022/09/08 12:36:24;;;;;;;;;;;24.20;46.30;;;;;;8335562;28;19975;-42
2022/09/08 12:40:33;;;;;;;;;;;24.20;46.30;;;;;;8335855;28;20389;-42
2022/09/08 12:44:39;;;;;;;;;;;24.20;46.20;;;;;;8335310;28;20278;-44
2022/09/08 12:48:43;;;;;;;;;;;24.20;46.20;;;;;;8335894;28;20000;-43
2022/09/08 12:53:02;;;;;;;;;;;24.20;46.30;;;;;;8335519;28;19921;-42
2022/09/08 12:57:21;;;;;;;;;;;24.10;46.20;;;;;;8334807;28;20286;-43
2022/09/08 13:01:28;;;;;;;;;;;24.10;46.20;;;;;;8335346;28;20010;-42
2022/09/08 13:05:52;;;;;;;;;;;24.10;46.20;;;;;;8334825;28;19945;-43
2022/09/08 13:10:15;;;;;;;;;;;24.10;46.20;;;;;;8309229;28;19913;-44
2022/09/08 13:14:21;;;;;;;;;;;24.10;46.20;;;;;;8334569;28;20289;-44
2022/09/08 13:18:29;;;;;;;;;;;24.10;46.20;;;;;;8334838;28;19925;-43
2022/09/08 13:22:39;;;;;;;;;;;24.10;46.20;;;;;;8333607;28;20370;-42
2022/09/08 13:26:39;;;;;;;;;;;24.10;46.20;;;;;;8334107;28;19917;-43
2022/09/08 13:30:59;;;;;;;;;;;24.10;46.20;;;;;;8334488;28;20329;-42
2022/09/08 13:35:00;;;;;;;;;;;24.20;46.20;;;;;;8334423;28;20358;-44
2022/09/08 13:39:06;;;;;;;;;;;24.20;46.20;;;;;;8334059;28;19928;-43
2022/09/08 13:43:25;;;;;;;;;;;24.10;46.20;;;;;;8333792;28;19917;-43
2022/09/08 13:47:43;;;;;;;;;;;24.20;46.20;;;;;;8333343;28;19921;-43
2022/09/08 13:51:49;;;;;;;;;;;24.20;46.10;;;;;;8333607;28;19921;-44
2022/09/08 13:56:08;;;;;;;;;;;24.20;46.10;;;;;;8333467;28;20055;-44
2022/09/08 14:00:11;;;;;;;;;;;24.20;46.00;;;;;;8333217;28;19925;-44
2022/09/08 14:04:12;;;;;;;;;;;24.20;46.00;;;;;;8333745;28;20441;-43
2022/09/08 14:08:17;;;;;;;;;;;24.20;46.00;;;;;;8333038;28;19924;-45
2022/09/08 14:12:22;;;;;;;;;;;24.20;46.00;;;;;;8332610;28;19917;-44
2022/09/08 14:16:28;;;;;;;;;;;24.20;45.90;;;;;;8333316;28;19924;-45
2022/09/08 14:20:37;;;;;;;;;;;24.20;45.90;;;;;;8332370;28;19953;-43
2022/09/08 14:24:47;;;;;;;;;;;24.20;45.90;;;;;;8332746;28;19958;-42
2022/09/08 14:29:07;;;;;;;;;;;24.20;45.80;;;;;;8332576;28;19913;-44
2022/09/08 14:33:24;;;;;;;;;;;24.20;45.80;;;;;;8278142;28;20428;-44
2022/09/08 14:37:28;;;;;;;;;;;24.30;45.70;;;;;;8322253;28;19929;-43
2022/09/08 14:41:44;;;;;;;;;;;24.20;45.80;;;;;;8331733;28;19921;-43
2022/09/08 14:46:02;;;;;;;;;;;24.30;45.80;;;;;;8331922;28;19913;-43
2022/09/08 14:50:10;;;;;;;;;;;24.30;45.70;;;;;;8331779;28;19944;-43
2022/09/08 14:54:23;;;;;;;;;;;24.30;45.80;;;;;;8331457;28;20003;-43
2022/09/08 14:58:33;;;;;;;;;;;24.20;45.70;;;;;;8331412;28;19925;-44
2022/09/08 15:02:35;;;;;;;;;;;24.30;45.70;;;;;;8331134;28;20293;-43
2022/09/08 15:06:45;;;;;;;;;;;24.20;45.70;;;;;;8331406;28;19917;-45
2022/09/08 15:10:58;;;;;;;;;;;24.30;45.70;;;;;;8331125;28;19913;-44
2022/09/08 15:15:14;;;;;;;;;;;24.20;45.70;;;;;;8330625;28;20302;-43
2022/09/08 15:19:30;;;;;;;;;;;24.30;45.70;;;;;;8331235;28;20421;-42
2022/09/08 15:23:34;;;;;;;;;;;24.20;45.70;;;;;;8330478;28;19917;-44
2022/09/08 15:27:35;;;;;;;;;;;24.30;45.70;;;;;;8352253;28;20365;-44
2022/09/08 15:31:40;;;;;;;;;;;24.30;45.60;;;;;;8363789;28;20437;-42
2022/09/08 15:35:50;;;;;;;;;;;24.30;45.70;;;;;;8363062;28;19920;-43
2022/09/08 15:39:50;;;;;;;;;;;24.30;45.60;;;;;;8363555;28;19921;-43
2022/09/08 15:44:09;;;;;;;;;;;24.30;45.50;;;;;;8354718;28;20293;-45
2022/09/08 15:48:28;;;;;;;;;;;24.20;45.60;;;;;;8308106;28;19959;-42
2022/09/08 15:52:38;;;;;;;;;;;24.20;45.50;;;;;;8311977;28;19940;-43
2022/09/08 15:56:49;;;;;;;;;;;24.20;45.50;;;;;;8298565;28;19924;-43
2022/09/08 16:00:57;;;;;;;;;;;24.20;45.40;;;;;;8318404;28;19917;-44
2022/09/08 16:05:11;;;;;;;;;;;24.30;45.40;;;;;;8300580;28;19936;-44
2022/09/08 16:09:18;;;;;;;;;;;24.30;45.40;;;;;;8318862;28;19921;-44
2022/09/08 16:13:21;;;;;;;;;;;24.20;45.40;;;;;;8307030;28;19941;-45
2022/09/08 16:17:22;;;;;;;;;;;24.20;45.40;;;;;;8323585;28;19926;-45
2022/09/08 16:21:26;;;;;;;;;;;24.20;45.30;;;;;;8324759;28;19920;-47
2022/09/08 16:25:37;;;;;;;;;;;24.30;45.30;;;;;;8314236;28;19917;-44
2022/09/08 16:29:52;;;;;;;;;;;24.30;45.30;;;;;;8329536;28;19920;-42
2022/09/08 16:34:14;;;;;;;;;;;24.30;45.30;;;;;;8315029;28;19917;-43
2022/09/08 16:38:34;;;;;;;;;;;24.20;45.30;;;;;;8299307;28;19929;-43
2022/09/08 16:42:35;;;;;;;;;;;24.20;45.20;;;;;;8307929;28;20325;-43
2022/09/08 16:46:38;;;;;;;;;;;24.20;45.20;;;;;;8308174;28;19922;-44
2022/09/08 16:50:42;;;;;;;;;;;24.30;45.30;;;;;;8304176;28;19917;-43
2022/09/08 16:54:47;;;;;;;;;;;24.20;45.20;;;;;;8301394;28;19957;-43
2022/09/08 16:59:02;;;;;;;;;;;24.20;45.20;;;;;;8315167;28;19929;-44
2022/09/08 17:03:15;;;;;;;;;;;24.20;45.20;;;;;;8303741;28;19925;-42
2022/09/08 17:07:30;;;;;;;;;;;24.20;44.70;;;;;;8312730;28;19925;-39
2022/09/08 17:11:37;;;;;;;;;;;24.10;45.00;;;;;;8305063;28;19979;-44
2022/09/08 17:15:52;;;;;;;;;;;24.10;45.00;;;;;;8306398;28;19972;-42
2022/09/08 17:19:54;;;;;;;;;;;24.00;44.00;;;;;;8306581;28;19925;-41
2022/09/08 17:24:07;;;;;;;;;;;24.00;44.40;;;;;;8315319;28;19921;-41
2022/09/08 17:28:14;;;;;;;;;;;23.90;44.20;;;;;;8323956;28;20020;-41
2022/09/08 17:32:23;;;;;;;;;;;23.80;41.80;;;;;;8307450;28;20376;-42
2022/09/08 17:36:43;;;;;;;;;;;23.70;42.80;;;;;;8324407;28;19921;-42
2022/09/08 17:40:53;;;;;;;;;;;23.70;42.40;;;;;;8311816;28;19982;-42
2022/09/08 17:45:01;;;;;;;;;;;23.70;42.90;;;;;;8303750;28;19921;-42
2022/09/08 17:49:20;;;;;;;;;;;23.60;42.30;;;;;;8304881;28;19937;-45
2022/09/08 17:53:46;;;;;;;;;;;23.50;42.80;;;;;;8314973;28;20396;-44
2022/09/08 17:57:47;;;;;;;;;;;23.60;43.40;;;;;;8313582;28;20361;-42
2022/09/08 18:01:57;;;;;;;;;;;23.70;43.70;;;;;;8313580;28;20275;-42
2022/09/08 18:06:07;;;;;;;;;;;23.80;43.90;;;;;;8316474;28;19929;-43
2022/09/08 18:10:16;;;;;;;;;;;23.80;44.00;;;;;;8320180;28;20380;-44
2022/09/08 18:14:22;;;;;;;;;;;23.90;43.90;;;;;;8315299;28;19921;-43
2022/09/08 18:18:32;;;;;;;;;;;23.90;43.70;;;;;;8324251;28;19971;-44
2022/09/08 18:22:56;;;;;;;;;;;23.90;43.80;;;;;;8306971;28;20374;-43
2022/09/08 18:26:57;;;;;;;;;;;23.90;43.80;;;;;;8324043;28;19927;-43
2022/09/08 18:31:09;;;;;;;;;;;23.90;43.80;;;;;;8318928;28;19919;-42
2022/09/08 18:35:11;;;;;;;;;;;23.90;43.90;;;;;;8319062;28;19921;-43
2022/09/08 18:39:16;;;;;;;;;;;23.90;43.90;;;;;;8312557;28;19929;-43
2022/09/08 18:43:24;;;;;;;;;;;23.90;43.90;;;;;;8313264;28;20299;-43
2022/09/08 18:47:43;;;;;;;;;;;23.90;43.90;;;;;;8303645;28;20027;-44
2022/09/08 18:52:02;;;;;;;;;;;23.90;44.00;;;;;;8302106;28;19917;-42
2022/09/08 18:56:15;;;;;;;;;;;23.90;44.10;;;;;;8316279;28;19914;-43
2022/09/08 19:00:16;;;;;;;;;;;23.90;44.10;;;;;;8310826;28;19960;-43
2022/09/08 19:04:30;;;;;;;;;;;23.90;44.20;;;;;;8342601;28;19917;-44
2022/09/08 19:08:45;;;;;;;;;;;23.80;44.20;;;;;;8319686;28;19918;-43
2022/09/08 19:13:00;;;;;;;;;;;23.90;44.30;;;;;;8314651;28;19917;-43
2022/09/08 19:17:10;;;;;;;;;;;23.80;44.20;;;;;;8298855;28;19921;-45
2022/09/08 19:21:13;;;;;;;;;;;23.90;44.30;;;;;;8315663;28;19971;-45
2022/09/08 19:25:20;;;;;;;;;;;23.80;44.30;;;;;;8296216;28;19964;-43
2022/09/08 19:29:40;;;;;;;;;;;23.80;44.30;;;;;;8299303;28;19917;-44
2022/09/08 19:33:52;;;;;;;;;;;23.80;44.40;;;;;;8303469;28;19917;-43
2022/09/08 19:37:59;;;;;;;;;;;23.80;44.40;;;;;;8300492;28;19926;-43
2022/09/08 19:42:15;;;;;;;;;;;23.80;44.40;;;;;;8319996;28;21312;-43
2022/09/08 19:46:16;;;;;;;;;;;23.80;44.40;;;;;;8330884;28;19945;-43
2022/09/08 19:50:18;;;;;;;;;;;23.80;44.40;;;;;;8329871;28;19917;-44
2022/09/08 19:54:25;;;;;;;;;;;23.80;44.40;;;;;;8330409;28;19917;-43
2022/09/08 19:58:25;;;;;;;;;;;23.80;44.40;;;;;;8330119;28;19935;-42
2022/09/08 20:02:26;;;;;;;;;;;23.80;44.50;;;;;;8329783;28;19917;-43
2022/09/08 20:06:29;;;;;;;;;;;23.80;44.50;;;;;;8330512;28;20370;-43
2022/09/08 20:10:33;;;;;;;;;;;23.70;44.40;;;;;;8337536;28;19920;-43
2022/09/08 20:14:47;;;;;;;;;;;23.80;44.50;;;;;;8340569;28;19925;-44
2022/09/08 20:18:57;;;;;;;;;;;23.70;44.50;;;;;;8329843;28;20293;-43
2022/09/08 20:22:57;;;;;;;;;;;23.80;44.50;;;;;;8329827;28;19917;-43
2022/09/08 20:27:18;;;;;;;;;;;23.70;44.50;;;;;;8329670;28;19919;-43
2022/09/08 20:31:23;;;;;;;;;;;23.70;44.50;;;;;;8321872;28;19917;-46
2022/09/08 20:35:41;;;;;;;;;;;23.70;44.50;;;;;;8335628;28;20408;-44
2022/09/08 20:39:45;;;;;;;;;;;23.70;44.50;;;;;;8336227;28;20388;-43
2022/09/08 20:43:57;;;;;;;;;;;23.70;44.50;;;;;;8335903;28;19917;-44
2022/09/08 20:48:05;;;;;;;;;;;23.70;44.50;;;;;;8335457;28;19963;-44
2022/09/08 20:52:05;;;;;;;;;;;23.70;44.50;;;;;;8335909;28;19970;-43
2022/09/08 20:56:23;;;;;;;;;;;23.70;44.50;;;;;;8335647;28;19971;-44
2022/09/08 21:00:24;;;;;;;;;;;23.70;44.50;;;;;;8294759;28;19932;-44
2022/09/08 21:04:30;;;;;;;;;;;23.70;44.60;;;;;;8320701;28;19956;-44
2022/09/08 21:08:31;;;;;;;;;;;23.70;44.60;;;;;;8334821;28;20004;-43
2022/09/08 21:12:33;;;;;;;;;;;23.60;44.50;;;;;;8334967;28;19920;-44
2022/09/08 21:16:39;;;;;;;;;;;23.70;44.60;;;;;;8335131;28;19924;-43
2022/09/08 21:20:48;;;;;;;;;;;23.60;44.60;;;;;;8334355;28;19925;-43
2022/09/08 21:24:54;;;;;;;;;;;23.60;44.60;;;;;;8335025;28;19917;-44
2022/09/08 21:28:59;;;;;;;;;;;23.60;44.60;;;;;;8334628;28;19925;-44
2022/09/08 21:33:01;;;;;;;;;;;23.60;45.10;;;;;;8333905;28;20366;-42
2022/09/08 21:37:18;;;;;;;;;;;23.60;44.60;;;;;;8334360;28;19972;-43
2022/09/08 21:41:21;;;;;;;;;;;23.60;44.60;;;;;;8332245;28;19924;-43
2022/09/08 21:45:23;;;;;;;;;;;23.60;44.60;;;;;;8334149;28;19925;-42
2022/09/08 21:49:24;;;;;;;;;;;23.60;44.70;;;;;;8333899;28;19914;-44
2022/09/08 21:53:33;;;;;;;;;;;23.60;44.60;;;;;;8333302;28;19920;-43
2022/09/08 21:57:33;;;;;;;;;;;23.50;44.70;;;;;;8334020;28;19928;-44
2022/09/08 22:01:38;;;;;;;;;;;23.50;44.70;;;;;;8332840;28;19917;-43
2022/09/08 22:05:47;;;;;;;;;;;23.60;44.70;;;;;;8333184;28;19918;-43
2022/09/08 22:09:48;;;;;;;;;;;23.50;44.60;;;;;;8333270;28;19921;-44
2022/09/08 22:13:59;;;;;;;;;;;23.50;44.70;;;;;;8333156;28;20407;-43
2022/09/08 22:18:01;;;;;;;;;;;23.50;44.70;;;;;;8332541;28;19932;-44
2022/09/08 22:22:05;;;;;;;;;;;23.50;44.70;;;;;;8333387;28;19921;-44
2022/09/08 22:26:06;;;;;;;;;;;23.50;44.70;;;;;;8332824;28;19918;-42
2022/09/08 22:30:14;;;;;;;;;;;23.50;44.70;;;;;;8332171;28;20055;-43
2022/09/08 22:34:23;;;;;;;;;;;23.50;44.80;;;;;;8332604;28;20290;-42
2022/09/08 22:38:43;;;;;;;;;;;23.40;44.70;;;;;;8331910;28;19925;-43
2022/09/08 22:42:43;;;;;;;;;;;23.50;44.70;;;;;;8332477;28;19995;-44
2022/09/08 22:46:52;;;;;;;;;;;23.50;44.80;;;;;;8332209;28;20344;-42
2022/09/08 22:50:55;;;;;;;;;;;23.50;44.80;;;;;;8335894;28;19921;-43
2022/09/08 22:54:58;;;;;;;;;;;23.50;44.80;;;;;;8347567;28;20003;-44
2022/09/08 22:59:00;;;;;;;;;;;23.50;44.80;;;;;;8331660;28;19929;-43
2022/09/08 23:03:04;;;;;;;;;;;23.40;44.70;;;;;;8331436;28;19917;-43
2022/09/08 23:07:24;;;;;;;;;;;23.40;44.80;;;;;;8331784;28;20374;-43
2022/09/08 23:11:40;;;;;;;;;;;23.40;44.70;;;;;;8331105;28;19917;-43
2022/09/08 23:15:47;;;;;;;;;;;23.40;44.80;;;;;;8331391;28;20340;-42
2022/09/08 23:19:47;;;;;;;;;;;23.40;44.80;;;;;;8331277;28;19933;-43
2022/09/08 23:23:53;;;;;;;;;;;23.40;44.80;;;;;;8330659;28;20393;-44
2022/09/08 23:27:59;;;;;;;;;;;23.40;44.80;;;;;;8331319;28;19917;-42
2022/09/08 23:32:01;;;;;;;;;;;23.40;44.80;;;;;;8331086;28;19917;-43
2022/09/08 23:36:14;;;;;;;;;;;23.30;44.70;;;;;;8330267;28;19937;-43
2022/09/08 23:40:27;;;;;;;;;;;23.30;44.80;;;;;;8330782;28;19921;-42
2022/09/08 23:44:29;;;;;;;;;;;23.30;44.80;;;;;;8330222;28;19925;-44
2022/09/08 23:48:33;;;;;;;;;;;23.30;44.80;;;;;;8330630;28;19920;-43
2022/09/08 23:52:36;;;;;;;;;;;23.30;44.80;;;;;;8330819;28;20004;-44
2022/09/08 23:56:39;;;;;;;;;;;23.30;44.80;;;;;;8330180;28;20323;-42
